createdAt,value
2023-03-16T00:01:41.878Z,15.48
2023-03-16T00:04:10.850Z,15.38
2023-03-16T00:06:41.119Z,15.43
2023-03-16T00:09:10.536Z,15.18
2023-03-16T00:11:39.162Z,14.03
2023-03-16T00:14:08.372Z,14.05
2023-03-16T00:16:39.374Z,14.38
2023-03-16T00:19:15.918Z,14.53
2023-03-16T00:21:46.405Z,15.28
2023-03-16T00:24:17.181Z,14.28
2023-03-16T00:26:47.818Z,14.85
2023-03-16T00:29:18.846Z,14.03
2023-03-16T00:31:47.681Z,14.05
2023-03-16T00:34:17.361Z,14.10
2023-03-16T00:36:50.416Z,14.23
2023-03-16T00:39:22.598Z,14.18
2023-03-16T00:41:51.980Z,14.25
2023-03-16T00:44:24.163Z,14.28
2023-03-16T00:46:55.002Z,14.05
2023-03-16T00:49:25.202Z,14.20
2023-03-16T00:51:53.948Z,13.38
2023-03-16T00:54:23.258Z,12.30
2023-03-16T00:56:54.640Z,12.28
2023-03-16T00:59:25.980Z,11.50
2023-03-16T01:01:55.161Z,11.53
2023-03-16T01:04:29.011Z,11.40
2023-03-16T01:06:59.170Z,11.83
2023-03-16T01:09:27.995Z,11.45
2023-03-16T01:11:58.350Z,11.88
2023-03-16T01:14:27.888Z,10.78
2023-03-16T01:16:56.614Z,10.30
2023-03-16T01:19:26.339Z,9.25
2023-03-16T01:21:56.611Z,9.18
2023-03-16T01:24:25.178Z,9.60
2023-03-16T01:26:54.064Z,9.35
2023-03-16T01:29:23.643Z,9.55
2023-03-16T01:31:55.663Z,9.30
2023-03-16T01:34:24.338Z,9.68
2023-03-16T01:36:53.702Z,10.60
2023-03-16T01:39:31.372Z,10.65
2023-03-16T01:42:00.184Z,10.05
2023-03-16T01:44:33.990Z,11.18
2023-03-16T01:47:04.537Z,9.55
2023-03-16T01:49:37.407Z,9.30
2023-03-16T01:52:27.614Z,9.65
2023-03-16T01:55:08.613Z,11.48
2023-03-16T01:57:42.355Z,9.90
2023-03-16T02:00:19.594Z,9.88
2023-03-16T02:03:16.027Z,9.65
2023-03-16T02:06:12.786Z,10.00
2023-03-16T02:08:45.760Z,10.23
2023-03-16T02:11:16.500Z,10.25
2023-03-16T02:13:46.944Z,10.10
2023-03-16T02:16:19.159Z,9.50
2023-03-16T02:18:48.436Z,9.40
2023-03-16T02:21:44.161Z,9.60
2023-03-16T02:24:13.083Z,10.32
2023-03-16T02:27:05.299Z,11.12
2023-03-16T02:30:05.522Z,11.15
2023-03-16T02:32:37.851Z,11.33
2023-03-16T02:35:08.381Z,11.20
2023-03-16T02:37:39.654Z,10.95
2023-03-16T02:40:32.312Z,10.25
2023-03-16T02:43:19.380Z,10.50
2023-03-16T02:45:58.780Z,10.93
2023-03-16T02:48:40.218Z,10.98
2023-03-16T02:51:10.551Z,9.78
2023-03-16T02:53:39.444Z,10.88
2023-03-16T02:56:12.077Z,10.78
2023-03-16T02:58:43.408Z,11.33
2023-03-16T03:01:14.545Z,10.60
2023-03-16T03:03:44.820Z,10.40
2023-03-16T03:06:15.147Z,12.05
2023-03-16T03:08:43.807Z,10.70
2023-03-16T03:11:13.759Z,12.15
2023-03-16T03:13:44.576Z,12.90
2023-03-16T03:16:16.021Z,13.48
2023-03-16T03:18:45.571Z,14.00
2023-03-16T03:21:16.455Z,14.10
2023-03-16T03:23:46.528Z,12.90
2023-03-16T03:26:15.527Z,13.90
2023-03-16T03:28:46.501Z,14.10
2023-03-16T03:31:17.409Z,14.40
2023-03-16T03:33:46.486Z,15.28
2023-03-16T03:36:16.384Z,14.68
2023-03-16T03:38:46.386Z,13.85
2023-03-16T03:41:17.464Z,15.75
2023-03-16T03:43:46.717Z,14.30
2023-03-16T03:46:18.937Z,16.42
2023-03-16T03:48:48.692Z,16.17
2023-03-16T03:51:17.485Z,16.37
2023-03-16T03:54:07.875Z,14.33
2023-03-16T03:56:54.351Z,14.90
2023-03-16T03:59:22.991Z,14.30
2023-03-16T04:02:12.985Z,16.35
2023-03-16T04:04:46.098Z,14.78
2023-03-16T04:07:15.691Z,15.60
2023-03-16T04:09:45.462Z,15.75
2023-03-16T04:12:18.548Z,15.45
2023-03-16T04:14:49.653Z,16.45
2023-03-16T04:17:19.843Z,15.40
2023-03-16T04:19:48.684Z,16.32
2023-03-16T04:22:18.892Z,16.32
2023-03-16T04:24:49.071Z,14.63
2023-03-16T04:27:18.057Z,15.95
2023-03-16T04:29:48.122Z,16.10
2023-03-16T04:32:18.021Z,15.78
2023-03-16T04:34:48.281Z,16.23
2023-03-16T04:37:17.989Z,15.23
2023-03-16T04:39:46.999Z,14.87
2023-03-16T04:42:18.525Z,14.15
2023-03-16T04:44:47.771Z,13.48
2023-03-16T04:47:17.057Z,15.13
2023-03-16T04:49:47.597Z,13.78
2023-03-16T04:52:18.640Z,15.03
2023-03-16T04:54:47.301Z,13.53
2023-03-16T04:57:19.122Z,15.35
2023-03-16T04:59:49.479Z,15.55
2023-03-16T05:02:20.552Z,17.10
2023-03-16T05:04:52.207Z,17.37
2023-03-16T05:07:24.273Z,17.40
2023-03-16T05:09:56.066Z,17.70
2023-03-16T05:12:25.023Z,17.02
2023-03-16T05:14:56.866Z,17.85
2023-03-16T05:17:30.672Z,17.62
2023-03-16T05:19:59.357Z,16.97
2023-03-16T05:22:29.842Z,16.93
2023-03-16T05:25:03.055Z,16.97
2023-03-16T05:27:34.090Z,14.95
2023-03-16T05:30:05.585Z,16.20
2023-03-16T05:32:35.324Z,16.10
2023-03-16T05:35:11.122Z,15.28
2023-03-16T05:37:41.928Z,16.23
2023-03-16T05:40:17.926Z,15.72
2023-03-16T05:42:53.648Z,15.30
2023-03-16T05:45:22.262Z,15.80
2023-03-16T05:47:53.156Z,15.58
2023-03-16T05:50:24.058Z,16.12
2023-03-16T05:52:54.993Z,16.50
2023-03-16T05:55:25.572Z,15.63
2023-03-16T05:57:58.147Z,15.93
2023-03-16T06:00:29.717Z,17.07
2023-03-16T06:03:01.288Z,16.12
2023-03-16T06:05:31.923Z,16.93
2023-03-16T06:08:01.398Z,15.20
2023-03-16T06:10:33.100Z,15.43
2023-03-16T06:13:01.945Z,14.38
2023-03-16T06:15:34.029Z,14.35
2023-03-16T06:18:05.555Z,15.53
2023-03-16T06:20:35.878Z,14.98
2023-03-16T06:23:05.132Z,14.35
2023-03-16T06:25:35.649Z,14.50
2023-03-16T06:28:05.973Z,13.38
2023-03-16T06:30:36.467Z,13.60
2023-03-16T06:33:06.411Z,14.58
2023-03-16T06:35:35.770Z,13.03
2023-03-16T06:38:06.994Z,13.58
2023-03-16T06:40:44.743Z,14.07
2023-03-16T06:43:15.996Z,12.93
2023-03-16T06:45:46.697Z,12.70
2023-03-16T06:48:15.954Z,12.78
2023-03-16T06:50:48.158Z,11.85
2023-03-16T06:53:18.635Z,11.12
2023-03-16T06:55:48.728Z,11.30
2023-03-16T06:58:18.770Z,11.05
2023-03-16T07:00:48.537Z,10.88
2023-03-16T07:03:17.771Z,11.53
2023-03-16T07:05:48.679Z,11.97
2023-03-16T07:08:18.713Z,11.55
2023-03-16T07:10:50.300Z,11.55
2023-03-16T07:13:19.614Z,11.28
2023-03-16T07:15:52.696Z,11.55
2023-03-16T07:18:22.743Z,12.03
2023-03-16T07:20:55.265Z,12.33
2023-03-16T07:23:25.967Z,11.93
2023-03-16T07:25:56.747Z,12.13
2023-03-16T07:28:27.772Z,12.53
2023-03-16T07:31:03.811Z,11.48
2023-03-16T07:33:30.563Z,10.98
2023-03-16T07:36:02.909Z,12.10
2023-03-16T07:38:33.133Z,12.50
2023-03-16T07:41:03.778Z,12.25
2023-03-16T07:43:34.504Z,13.00
2023-03-16T07:46:03.973Z,11.48
2023-03-16T07:48:35.280Z,12.63
2023-03-16T07:51:05.804Z,13.20
2023-03-16T07:53:34.931Z,12.25
2023-03-16T07:56:08.763Z,13.35
2023-03-16T07:58:39.164Z,12.75
2023-03-16T08:01:10.567Z,12.03
2023-03-16T08:03:39.978Z,12.25
2023-03-16T08:06:11.862Z,13.18
2023-03-16T08:08:42.802Z,13.40
2023-03-16T08:11:13.053Z,13.38
2023-03-16T08:13:56.328Z,13.28
2023-03-16T08:16:27.886Z,13.70
2023-03-16T08:18:59.020Z,12.75
2023-03-16T08:21:30.193Z,14.00
2023-03-16T08:23:59.323Z,14.90
2023-03-16T08:26:31.409Z,14.33
2023-03-16T08:29:02.156Z,14.70
2023-03-16T08:31:33.227Z,13.03
2023-03-16T08:34:06.083Z,13.95
2023-03-16T08:36:37.799Z,14.20
2023-03-16T08:39:08.077Z,14.13
2023-03-16T08:41:40.346Z,14.55
2023-03-16T08:44:12.629Z,14.18
2023-03-16T08:46:42.433Z,13.48
2023-03-16T08:49:13.404Z,14.03
2023-03-16T08:51:45.058Z,14.93
2023-03-16T08:54:15.201Z,13.83
2023-03-16T08:56:44.238Z,15.15
2023-03-16T08:59:23.629Z,14.10
2023-03-16T09:01:44.076Z,14.05
2023-03-16T09:04:14.774Z,14.90
2023-03-16T09:06:45.616Z,13.28
2023-03-16T09:09:16.196Z,13.48
2023-03-16T09:11:47.957Z,14.20
2023-03-16T09:14:16.566Z,13.80
2023-03-16T09:16:48.193Z,14.40
2023-03-16T09:19:16.830Z,14.07
2023-03-16T09:21:47.445Z,13.03
2023-03-16T09:24:16.367Z,13.65
2023-03-16T09:26:47.236Z,14.33
2023-03-16T09:29:16.403Z,14.35
2023-03-16T09:31:46.022Z,13.62
2023-03-16T09:34:15.710Z,13.58
2023-03-16T09:36:45.031Z,13.58
2023-03-16T09:39:15.956Z,13.68
2023-03-16T09:42:15.457Z,14.43
2023-03-16T09:45:16.594Z,15.10
2023-03-16T09:47:46.406Z,14.75
2023-03-16T09:50:24.430Z,13.00
2023-03-16T09:53:24.676Z,13.98
2023-03-16T09:55:57.643Z,14.07
2023-03-16T09:58:27.175Z,12.18
2023-03-16T10:01:22.769Z,13.32
2023-03-16T10:04:46.119Z,14.23
2023-03-16T10:07:52.049Z,12.07
2023-03-16T10:10:40.775Z,12.18
2023-03-16T10:13:36.045Z,13.32
2023-03-16T10:16:15.324Z,12.65
2023-03-16T10:18:48.667Z,12.98
2023-03-16T10:21:19.032Z,13.55
2023-03-16T10:23:48.986Z,12.43
2023-03-16T10:26:29.502Z,13.78
2023-03-16T10:29:01.794Z,13.13
2023-03-16T10:31:39.406Z,13.20
2023-03-16T10:34:11.471Z,13.08
2023-03-16T10:36:42.193Z,12.82
2023-03-16T10:39:16.701Z,12.40
2023-03-16T10:41:50.266Z,12.65
2023-03-16T10:44:29.663Z,13.53
2023-03-16T10:47:05.416Z,12.15
2023-03-16T10:49:44.558Z,13.45
2023-03-16T10:52:24.868Z,11.50
2023-03-16T10:55:00.142Z,10.88
2023-03-16T10:57:34.029Z,12.20
2023-03-16T11:00:23.917Z,12.10
2023-03-16T11:02:57.591Z,11.80
2023-03-16T11:05:31.576Z,10.88
2023-03-16T11:08:10.399Z,10.50
2023-03-16T11:10:55.567Z,10.88
2023-03-16T11:16:35.128Z,10.80
2023-03-16T11:19:27.012Z,11.03
2023-03-16T11:22:10.817Z,12.35
2023-03-16T11:24:44.900Z,11.73
2023-03-16T11:27:28.849Z,10.55
2023-03-16T11:30:17.590Z,11.12
2023-03-16T11:32:50.871Z,10.80
2023-03-16T11:35:41.979Z,13.20
2023-03-16T11:38:21.360Z,11.03
2023-03-16T11:41:03.016Z,10.10
2023-03-16T11:43:56.538Z,11.83
2023-03-16T11:46:37.132Z,10.45
2023-03-16T11:49:49.617Z,11.00
2023-03-16T11:52:56.994Z,10.25
2023-03-16T11:56:01.617Z,11.57
2023-03-16T11:59:07.880Z,11.95
2023-03-16T12:02:01.823Z,11.12
2023-03-16T12:04:49.502Z,13.62
2023-03-16T12:07:52.894Z,14.05
2023-03-16T12:10:41.345Z,11.60
2023-03-16T12:13:38.264Z,12.28
2023-03-16T12:16:21.467Z,11.57
2023-03-16T12:18:57.748Z,11.80
2023-03-16T12:21:38.443Z,11.40
2023-03-16T12:24:11.195Z,14.75
2023-03-16T12:26:41.347Z,13.90
2023-03-16T12:29:35.254Z,12.55
2023-03-16T12:32:45.473Z,12.15
2023-03-16T12:35:59.701Z,11.75
2023-03-16T12:38:59.872Z,12.18
2023-03-16T12:42:12.447Z,12.25
2023-03-16T12:44:54.899Z,10.80
2023-03-16T12:47:54.286Z,11.15
2023-03-16T12:50:25.844Z,10.53
2023-03-16T12:52:54.471Z,10.80
2023-03-16T12:55:41.575Z,11.60
2023-03-16T12:58:12.988Z,12.25
2023-03-16T13:00:43.230Z,13.10
2023-03-16T13:03:16.927Z,12.88
2023-03-16T13:05:55.718Z,12.53
2023-03-16T13:08:25.749Z,12.63
2023-03-16T13:11:05.467Z,12.98
2023-03-16T13:13:38.317Z,12.40
2023-03-16T13:16:11.863Z,12.88
2023-03-16T13:18:43.269Z,11.03
2023-03-16T13:21:20.273Z,11.40
2023-03-16T13:24:03.282Z,10.65
2023-03-16T13:26:47.810Z,11.68
2023-03-16T13:29:30.463Z,12.15
2023-03-16T13:32:05.956Z,12.47
2023-03-16T13:34:50.675Z,10.85
2023-03-16T13:37:21.107Z,10.55
2023-03-16T13:39:57.597Z,12.18
2023-03-16T13:42:33.456Z,11.75
2023-03-16T13:45:16.152Z,12.10
2023-03-16T13:47:46.565Z,12.07
2023-03-16T13:50:16.236Z,10.10
2023-03-16T13:52:58.610Z,9.33
2023-03-16T13:55:36.287Z,10.82
2023-03-16T13:58:05.891Z,10.18
2023-03-16T14:00:36.785Z,10.98
2023-03-16T14:03:17.586Z,9.30
2023-03-16T14:05:49.431Z,9.05
2023-03-16T14:08:21.216Z,11.28
2023-03-16T14:10:51.082Z,11.03
2023-03-16T14:13:36.016Z,10.18
2023-03-16T14:16:19.577Z,8.73
2023-03-16T14:18:54.508Z,8.23
2023-03-16T14:21:28.255Z,7.50
2023-03-16T14:24:08.018Z,7.50
2023-03-16T14:26:45.196Z,8.60
2023-03-16T14:29:21.950Z,8.55
2023-03-16T14:31:50.843Z,5.53
2023-03-16T14:34:28.670Z,7.70
2023-03-16T14:37:13.777Z,8.03
2023-03-16T14:39:42.686Z,6.95
2023-03-16T14:42:30.907Z,7.83
2023-03-16T14:45:10.394Z,7.08
2023-03-16T14:47:46.142Z,6.83
2023-03-16T14:50:20.374Z,6.90
2023-03-16T14:52:52.746Z,7.03
2023-03-16T14:55:24.581Z,7.17
2023-03-16T14:57:55.302Z,7.22
2023-03-16T15:00:26.595Z,7.08
2023-03-16T15:03:09.716Z,7.80
2023-03-16T15:05:42.717Z,6.05
2023-03-16T15:08:17.345Z,6.08
2023-03-16T15:10:47.253Z,7.03
2023-03-16T15:13:36.288Z,7.25
2023-03-16T15:16:08.459Z,7.67
2023-03-16T15:18:42.402Z,7.30
2023-03-16T15:21:15.460Z,6.10
2023-03-16T15:23:45.332Z,6.60
2023-03-16T15:26:16.669Z,6.85
2023-03-16T15:28:46.382Z,7.83
2023-03-16T15:31:15.460Z,7.45
2023-03-16T15:33:45.250Z,7.85
2023-03-16T15:36:18.974Z,6.67
2023-03-16T15:38:52.430Z,5.70
2023-03-16T15:41:21.387Z,6.67
2023-03-16T15:43:52.660Z,7.67
2023-03-16T15:46:22.687Z,7.72
2023-03-16T15:48:51.580Z,7.58
2023-03-16T15:51:29.076Z,7.40
2023-03-16T15:54:00.239Z,6.95
2023-03-16T15:56:41.200Z,7.90
2023-03-16T15:59:09.680Z,7.05
2023-03-16T16:01:44.765Z,6.95
2023-03-16T16:04:19.329Z,7.15
2023-03-16T16:06:49.103Z,7.15
2023-03-16T16:09:19.494Z,6.65
2023-03-16T16:11:50.304Z,7.10
2023-03-16T16:14:24.660Z,7.53
2023-03-16T16:16:54.627Z,7.75
2023-03-16T16:19:23.527Z,8.20
2023-03-16T16:21:54.317Z,7.08
2023-03-16T16:24:23.422Z,6.37
2023-03-16T16:26:55.357Z,6.37
2023-03-16T16:29:26.374Z,7.72
2023-03-16T16:31:55.970Z,9.23
2023-03-16T16:34:28.548Z,8.95
2023-03-16T16:36:59.873Z,8.60
2023-03-16T16:39:30.725Z,8.98
2023-03-16T16:42:01.195Z,7.37
2023-03-16T16:44:37.619Z,7.60
2023-03-16T16:47:19.282Z,7.83
2023-03-16T16:49:50.900Z,7.83
2023-03-16T16:52:20.272Z,8.08
2023-03-16T16:54:50.446Z,7.28
2023-03-16T16:57:19.432Z,7.22
2023-03-16T16:59:49.751Z,7.20
2023-03-16T17:02:32.551Z,8.35
2023-03-16T17:05:04.363Z,8.25
2023-03-16T17:07:33.307Z,8.08
2023-03-16T17:10:03.916Z,8.53
2023-03-16T17:12:35.615Z,7.40
2023-03-16T17:15:14.333Z,7.10
2023-03-16T17:17:45.662Z,7.17
2023-03-16T17:20:20.515Z,8.40
2023-03-16T17:22:51.356Z,8.25
2023-03-16T17:25:29.567Z,7.80
2023-03-16T17:30:33.741Z,7.20
2023-03-16T17:33:09.584Z,7.78
2023-03-16T17:35:38.483Z,7.65
2023-03-16T17:38:17.837Z,7.30
2023-03-16T17:40:47.088Z,7.33
2023-03-16T17:43:18.689Z,7.42
2023-03-16T17:45:51.086Z,7.33
2023-03-16T17:48:22.545Z,6.47
2023-03-16T17:50:51.961Z,7.78
2023-03-16T17:53:21.717Z,7.40
2023-03-16T17:55:52.217Z,6.85
2023-03-16T17:58:31.483Z,7.40
2023-03-16T18:01:02.835Z,6.70
2023-03-16T18:03:32.621Z,6.80
2023-03-16T18:06:01.432Z,6.37
2023-03-16T18:08:33.909Z,6.05
2023-03-16T18:11:04.895Z,6.25
2023-03-16T18:13:37.849Z,6.40
2023-03-16T18:16:08.890Z,6.72
2023-03-16T18:18:39.371Z,5.80
2023-03-16T18:21:17.977Z,5.45
2023-03-16T18:23:47.214Z,6.40
2023-03-16T18:26:18.695Z,6.12
2023-03-16T18:28:50.282Z,6.03
2023-03-16T18:31:23.878Z,6.30
2023-03-16T18:33:58.036Z,5.90
2023-03-16T18:36:34.519Z,5.62
2023-03-16T18:39:07.366Z,4.80
2023-03-16T18:41:37.987Z,5.00
2023-03-16T18:44:18.613Z,4.87
2023-03-16T18:46:48.353Z,5.10
2023-03-16T18:49:24.366Z,5.55
2023-03-16T18:51:55.847Z,4.42
2023-03-16T18:54:30.573Z,5.03
2023-03-16T18:57:00.582Z,4.58
2023-03-16T18:59:31.253Z,4.25
2023-03-16T19:02:00.657Z,4.17
2023-03-16T19:04:32.790Z,4.37
2023-03-16T19:07:03.230Z,3.70
2023-03-16T19:09:32.341Z,4.55
2023-03-16T19:12:03.344Z,3.70
2023-03-16T19:14:32.971Z,3.00
2023-03-16T19:17:04.518Z,3.60
2023-03-16T19:19:34.035Z,3.15
2023-03-16T19:22:11.590Z,3.60
2023-03-16T19:24:52.480Z,3.40
2023-03-16T19:27:26.187Z,2.70
2023-03-16T19:29:56.944Z,2.95
2023-03-16T19:32:26.721Z,2.95
2023-03-16T19:34:57.546Z,3.15
2023-03-16T19:37:29.417Z,3.15
2023-03-16T19:40:00.551Z,2.90
2023-03-16T19:42:33.514Z,3.17
2023-03-16T19:45:04.403Z,3.55
2023-03-16T19:47:35.161Z,2.58
2023-03-16T19:50:18.201Z,2.70
2023-03-16T19:52:47.696Z,2.67
2023-03-16T19:55:23.259Z,2.50
2023-03-16T19:58:04.957Z,2.77
2023-03-16T20:00:36.077Z,2.72
2023-03-16T20:03:05.598Z,2.80
2023-03-16T20:05:36.713Z,2.80
2023-03-16T20:08:21.239Z,2.12
2023-03-16T20:10:50.377Z,2.52
2023-03-16T20:13:19.736Z,2.35
2023-03-16T20:15:49.408Z,2.20
2023-03-16T20:18:19.968Z,2.40
2023-03-16T20:20:50.806Z,2.12
2023-03-16T20:23:24.227Z,2.12
2023-03-16T20:25:56.070Z,2.20
2023-03-16T20:28:36.115Z,1.82
2023-03-16T20:31:09.090Z,2.00
2023-03-16T20:33:38.214Z,2.08
2023-03-16T20:36:12.116Z,1.82
2023-03-16T20:38:43.765Z,2.00
2023-03-16T20:41:30.996Z,2.10
2023-03-16T20:44:01.466Z,2.08
2023-03-16T20:46:32.689Z,1.98
2023-03-16T20:49:02.195Z,1.67
2023-03-16T20:51:31.365Z,1.92
2023-03-16T20:54:00.648Z,1.82
2023-03-16T20:56:30.720Z,2.17
2023-03-16T20:59:03.650Z,1.98
2023-03-16T21:01:34.668Z,2.00
2023-03-16T21:04:06.322Z,1.82
2023-03-16T21:06:36.044Z,1.92
2023-03-16T21:09:06.461Z,1.92
2023-03-16T21:11:37.988Z,2.08
2023-03-16T21:14:08.070Z,1.95
2023-03-16T21:16:36.832Z,2.00
2023-03-16T21:19:21.561Z,1.85
2023-03-16T21:21:51.216Z,2.00
2023-03-16T21:24:21.638Z,2.02
2023-03-16T21:26:51.629Z,2.00
2023-03-16T21:29:21.811Z,2.20
2023-03-16T21:31:52.550Z,2.47
2023-03-16T21:34:27.929Z,1.85
2023-03-16T21:36:59.180Z,2.53
2023-03-16T21:39:28.183Z,2.70
2023-03-16T21:42:02.200Z,3.10
2023-03-16T21:44:32.647Z,1.92
2023-03-16T21:47:02.857Z,2.10
2023-03-16T21:49:33.554Z,1.98
2023-03-16T21:55:12.233Z,1.30
2023-03-16T21:57:42.436Z,1.42
2023-03-16T22:00:23.128Z,1.50
2023-03-16T22:02:54.787Z,1.40
2023-03-16T22:05:39.222Z,1.17
2023-03-16T22:08:19.099Z,1.20
2023-03-16T22:10:49.461Z,1.25
2023-03-16T22:13:39.909Z,0.90
2023-03-16T22:16:16.896Z,1.20
2023-03-16T22:18:49.104Z,1.20
2023-03-16T22:21:35.348Z,1.20
2023-03-16T22:24:09.724Z,1.20
2023-03-16T22:26:39.110Z,1.20
2023-03-16T22:29:26.021Z,1.35
2023-03-16T22:32:02.242Z,1.30
2023-03-16T22:34:39.647Z,1.20
2023-03-16T22:37:10.921Z,1.02
2023-03-16T22:39:40.605Z,1.40
2023-03-16T22:42:36.337Z,1.45
2023-03-16T22:45:24.793Z,1.40
2023-03-16T22:47:56.265Z,1.35
2023-03-16T22:50:28.498Z,1.40
2023-03-16T22:53:01.078Z,1.22
2023-03-16T22:55:33.913Z,1.30
2023-03-16T22:58:17.964Z,1.45
2023-03-16T23:00:49.080Z,1.52
2023-03-16T23:03:22.004Z,1.20
2023-03-16T23:05:52.732Z,1.30
2023-03-16T23:08:23.182Z,1.45
2023-03-16T23:11:03.935Z,1.40
2023-03-16T23:13:37.390Z,1.17
2023-03-16T23:16:11.121Z,1.30
2023-03-16T23:18:42.534Z,1.40
2023-03-16T23:21:16.872Z,1.20
2023-03-16T23:24:02.579Z,1.27
2023-03-16T23:26:22.865Z,1.42
2023-03-16T23:28:55.866Z,1.37
2023-03-16T23:31:26.896Z,1.30
2023-03-16T23:33:56.292Z,1.42
2023-03-16T23:36:26.115Z,1.50
2023-03-16T23:38:57.344Z,1.00
2023-03-16T23:41:27.340Z,1.40
2023-03-16T23:43:58.275Z,1.30
2023-03-16T23:46:27.918Z,1.52
2023-03-16T23:48:58.523Z,1.42
2023-03-16T23:51:33.675Z,1.20
2023-03-16T23:54:04.606Z,1.20
2023-03-16T23:56:35.521Z,1.32
2023-03-16T23:59:06.480Z,1.62
